sensor_id;sensor_type;location;lat;lon;timestamp;P1;durP1;ratioP1;P2;durP2;ratioP2
30247;SDS011;17063;50.892;4.702;2022-10-31T00:03:57;17.37;;;8.40;;
30247;SDS011;17063;50.892;4.702;2022-10-31T00:06:25;20.13;;;9.53;;
30247;SDS011;17063;50.892;4.702;2022-10-31T00:08:59;17.87;;;8.70;;
30247;SDS011;17063;50.892;4.702;2022-10-31T00:11:28;16.60;;;8.73;;
30247;SDS011;17063;50.892;4.702;2022-10-31T00:13:59;18.87;;;8.53;;
30247;SDS011;17063;50.892;4.702;2022-10-31T00:16:27;18.20;;;8.50;;
30247;SDS011;17063;50.892;4.702;2022-10-31T00:19:13;14.53;;;8.00;;
30247;SDS011;17063;50.892;4.702;2022-10-31T00:21:51;18.67;;;8.20;;
30247;SDS011;17063;50.892;4.702;2022-10-31T00:24:22;17.73;;;7.97;;
30247;SDS011;17063;50.892;4.702;2022-10-31T00:26:55;16.07;;;8.07;;
30247;SDS011;17063;50.892;4.702;2022-10-31T00:30:25;14.50;;;7.43;;
30247;SDS011;17063;50.892;4.702;2022-10-31T00:37:07;14.87;;;7.83;;
30247;SDS011;17063;50.892;4.702;2022-10-31T00:39:35;16.50;;;7.93;;
30247;SDS011;17063;50.892;4.702;2022-10-31T00:42:03;17.00;;;8.20;;
30247;SDS011;17063;50.892;4.702;2022-10-31T00:44:32;14.97;;;7.87;;
30247;SDS011;17063;50.892;4.702;2022-10-31T00:47:00;18.57;;;8.80;;
30247;SDS011;17063;50.892;4.702;2022-10-31T00:49:28;21.33;;;8.63;;
30247;SDS011;17063;50.892;4.702;2022-10-31T00:52:16;14.87;;;8.20;;
30247;SDS011;17063;50.892;4.702;2022-10-31T00:54:48;15.70;;;7.70;;
30247;SDS011;17063;50.892;4.702;2022-10-31T00:57:19;16.07;;;8.37;;
30247;SDS011;17063;50.892;4.702;2022-10-31T00:59:48;22.07;;;9.17;;
30247;SDS011;17063;50.892;4.702;2022-10-31T01:02:21;14.97;;;7.47;;
30247;SDS011;17063;50.892;4.702;2022-10-31T01:04:52;18.03;;;7.93;;
30247;SDS011;17063;50.892;4.702;2022-10-31T01:07:21;14.00;;;7.87;;
30247;SDS011;17063;50.892;4.702;2022-10-31T01:09:51;18.23;;;7.47;;
30247;SDS011;17063;50.892;4.702;2022-10-31T01:12:21;15.93;;;7.93;;
30247;SDS011;17063;50.892;4.702;2022-10-31T01:14:49;15.00;;;7.50;;
30247;SDS011;17063;50.892;4.702;2022-10-31T01:17:17;13.17;;;7.27;;
30247;SDS011;17063;50.892;4.702;2022-10-31T01:19:46;13.90;;;7.27;;
30247;SDS011;17063;50.892;4.702;2022-10-31T01:22:17;16.90;;;7.23;;
30247;SDS011;17063;50.892;4.702;2022-10-31T01:24:45;16.03;;;7.70;;
30247;SDS011;17063;50.892;4.702;2022-10-31T01:27:12;16.90;;;7.93;;
30247;SDS011;17063;50.892;4.702;2022-10-31T01:29:39;13.77;;;7.80;;
30247;SDS011;17063;50.892;4.702;2022-10-31T01:32:07;15.70;;;7.97;;
30247;SDS011;17063;50.892;4.702;2022-10-31T01:34:34;16.47;;;7.53;;
30247;SDS011;17063;50.892;4.702;2022-10-31T01:37:01;16.17;;;8.00;;
30247;SDS011;17063;50.892;4.702;2022-10-31T01:39:28;12.67;;;8.00;;
30247;SDS011;17063;50.892;4.702;2022-10-31T01:41:55;16.50;;;7.83;;
30247;SDS011;17063;50.892;4.702;2022-10-31T01:46:51;17.50;;;7.40;;
30247;SDS011;17063;50.892;4.702;2022-10-31T01:49:33;12.37;;;7.83;;
30247;SDS011;17063;50.892;4.702;2022-10-31T01:54:40;15.27;;;8.37;;
30247;SDS011;17063;50.892;4.702;2022-10-31T01:57:10;18.73;;;7.80;;
30247;SDS011;17063;50.892;4.702;2022-10-31T01:59:40;16.03;;;7.23;;
30247;SDS011;17063;50.892;4.702;2022-10-31T02:02:11;14.40;;;8.23;;
30247;SDS011;17063;50.892;4.702;2022-10-31T02:04:39;15.57;;;7.40;;
30247;SDS011;17063;50.892;4.702;2022-10-31T02:07:16;13.70;;;8.13;;
30247;SDS011;17063;50.892;4.702;2022-10-31T02:09:48;17.80;;;7.67;;
30247;SDS011;17063;50.892;4.702;2022-10-31T02:12:18;17.17;;;8.10;;
30247;SDS011;17063;50.892;4.702;2022-10-31T02:14:45;15.90;;;7.60;;
30247;SDS011;17063;50.892;4.702;2022-10-31T02:17:14;18.50;;;7.43;;
30247;SDS011;17063;50.892;4.702;2022-10-31T02:22:30;14.97;;;7.57;;
30247;SDS011;17063;50.892;4.702;2022-10-31T02:27:45;13.50;;;7.63;;
30247;SDS011;17063;50.892;4.702;2022-10-31T02:30:23;16.00;;;7.80;;
30247;SDS011;17063;50.892;4.702;2022-10-31T02:49:13;17.20;;;7.50;;
30247;SDS011;17063;50.892;4.702;2022-10-31T02:52:22;13.97;;;7.67;;
30247;SDS011;17063;50.892;4.702;2022-10-31T02:54:57;11.13;;;7.40;;
30247;SDS011;17063;50.892;4.702;2022-10-31T02:57:26;13.23;;;7.60;;
30247;SDS011;17063;50.892;4.702;2022-10-31T03:00:06;18.07;;;8.07;;
30247;SDS011;17063;50.892;4.702;2022-10-31T03:18:59;18.87;;;8.37;;
30247;SDS011;17063;50.892;4.702;2022-10-31T03:21:44;15.17;;;7.30;;
30247;SDS011;17063;50.892;4.702;2022-10-31T03:24:15;13.57;;;7.23;;
30247;SDS011;17063;50.892;4.702;2022-10-31T03:26:47;14.63;;;6.70;;
30247;SDS011;17063;50.892;4.702;2022-10-31T03:29:18;16.73;;;8.50;;
30247;SDS011;17063;50.892;4.702;2022-10-31T03:31:54;10.97;;;7.03;;
30247;SDS011;17063;50.892;4.702;2022-10-31T03:34:23;15.17;;;7.40;;
30247;SDS011;17063;50.892;4.702;2022-10-31T03:36:52;18.43;;;8.67;;
30247;SDS011;17063;50.892;4.702;2022-10-31T03:39:22;16.33;;;7.87;;
30247;SDS011;17063;50.892;4.702;2022-10-31T03:41:55;14.30;;;7.70;;
30247;SDS011;17063;50.892;4.702;2022-10-31T03:44:27;15.23;;;7.33;;
30247;SDS011;17063;50.892;4.702;2022-10-31T03:46:58;14.40;;;7.67;;
30247;SDS011;17063;50.892;4.702;2022-10-31T03:49:26;13.17;;;7.63;;
30247;SDS011;17063;50.892;4.702;2022-10-31T03:52:01;11.80;;;7.30;;
30247;SDS011;17063;50.892;4.702;2022-10-31T03:54:41;15.97;;;7.87;;
30247;SDS011;17063;50.892;4.702;2022-10-31T03:59:57;16.80;;;7.70;;
30247;SDS011;17063;50.892;4.702;2022-10-31T04:02:32;11.03;;;6.97;;
30247;SDS011;17063;50.892;4.702;2022-10-31T04:05:02;14.70;;;7.67;;
30247;SDS011;17063;50.892;4.702;2022-10-31T04:07:33;12.97;;;7.60;;
30247;SDS011;17063;50.892;4.702;2022-10-31T04:10:07;15.30;;;7.13;;
30247;SDS011;17063;50.892;4.702;2022-10-31T04:12:36;13.47;;;7.57;;
30247;SDS011;17063;50.892;4.702;2022-10-31T04:15:16;16.03;;;7.67;;
30247;SDS011;17063;50.892;4.702;2022-10-31T04:17:45;14.93;;;7.50;;
30247;SDS011;17063;50.892;4.702;2022-10-31T04:20:18;17.73;;;7.97;;
30247;SDS011;17063;50.892;4.702;2022-10-31T04:22:47;13.57;;;7.20;;
30247;SDS011;17063;50.892;4.702;2022-10-31T04:25:15;12.27;;;7.27;;
30247;SDS011;17063;50.892;4.702;2022-10-31T04:27:43;14.93;;;7.93;;
30247;SDS011;17063;50.892;4.702;2022-10-31T04:30:11;16.70;;;7.83;;
30247;SDS011;17063;50.892;4.702;2022-10-31T04:32:41;17.87;;;7.77;;
30247;SDS011;17063;50.892;4.702;2022-10-31T04:35:08;17.90;;;7.83;;
30247;SDS011;17063;50.892;4.702;2022-10-31T04:37:36;19.57;;;8.23;;
30247;SDS011;17063;50.892;4.702;2022-10-31T04:40:04;18.07;;;8.33;;
30247;SDS011;17063;50.892;4.702;2022-10-31T04:42:43;12.53;;;7.57;;
30247;SDS011;17063;50.892;4.702;2022-10-31T04:45:13;13.83;;;7.93;;
30247;SDS011;17063;50.892;4.702;2022-10-31T04:47:50;18.47;;;8.83;;
30247;SDS011;17063;50.892;4.702;2022-10-31T04:50:24;15.50;;;7.97;;
30247;SDS011;17063;50.892;4.702;2022-10-31T04:52:52;17.97;;;8.40;;
30247;SDS011;17063;50.892;4.702;2022-10-31T04:55:26;18.90;;;7.70;;
30247;SDS011;17063;50.892;4.702;2022-10-31T04:58:11;18.43;;;8.03;;
30247;SDS011;17063;50.892;4.702;2022-10-31T05:00:39;14.77;;;7.63;;
30247;SDS011;17063;50.892;4.702;2022-10-31T05:03:06;14.73;;;8.27;;
30247;SDS011;17063;50.892;4.702;2022-10-31T05:05:35;16.70;;;8.90;;
30247;SDS011;17063;50.892;4.702;2022-10-31T05:08:03;17.20;;;8.67;;
30247;SDS011;17063;50.892;4.702;2022-10-31T05:10:32;16.03;;;8.37;;
30247;SDS011;17063;50.892;4.702;2022-10-31T05:13:00;17.47;;;8.63;;
30247;SDS011;17063;50.892;4.702;2022-10-31T05:15:58;18.63;;;8.33;;
30247;SDS011;17063;50.892;4.702;2022-10-31T05:18:48;12.97;;;7.30;;
30247;SDS011;17063;50.892;4.702;2022-10-31T05:21:35;12.70;;;8.17;;
30247;SDS011;17063;50.892;4.702;2022-10-31T05:24:02;16.17;;;7.30;;
30247;SDS011;17063;50.892;4.702;2022-10-31T05:26:32;12.90;;;7.33;;
30247;SDS011;17063;50.892;4.702;2022-10-31T05:28:59;12.20;;;7.67;;
30247;SDS011;17063;50.892;4.702;2022-10-31T05:31:27;14.50;;;8.10;;
30247;SDS011;17063;50.892;4.702;2022-10-31T05:33:55;15.40;;;7.87;;
30247;SDS011;17063;50.892;4.702;2022-10-31T05:36:45;14.17;;;7.70;;
30247;SDS011;17063;50.892;4.702;2022-10-31T05:39:16;17.80;;;7.40;;
30247;SDS011;17063;50.892;4.702;2022-10-31T05:41:49;16.87;;;7.10;;
30247;SDS011;17063;50.892;4.702;2022-10-31T05:44:23;16.27;;;8.43;;
30247;SDS011;17063;50.892;4.702;2022-10-31T05:46:57;15.60;;;8.00;;
30247;SDS011;17063;50.892;4.702;2022-10-31T05:49:42;17.80;;;8.70;;
30247;SDS011;17063;50.892;4.702;2022-10-31T05:52:28;17.90;;;7.87;;
30247;SDS011;17063;50.892;4.702;2022-10-31T05:55:05;15.33;;;8.10;;
30247;SDS011;17063;50.892;4.702;2022-10-31T05:57:32;20.63;;;8.77;;
30247;SDS011;17063;50.892;4.702;2022-10-31T06:00:00;16.87;;;8.57;;
30247;SDS011;17063;50.892;4.702;2022-10-31T06:02:32;12.47;;;8.10;;
30247;SDS011;17063;50.892;4.702;2022-10-31T06:05:19;14.80;;;8.23;;
30247;SDS011;17063;50.892;4.702;2022-10-31T06:07:47;17.17;;;8.30;;
30247;SDS011;17063;50.892;4.702;2022-10-31T06:10:24;14.43;;;8.33;;
30247;SDS011;17063;50.892;4.702;2022-10-31T06:12:54;15.83;;;8.63;;
30247;SDS011;17063;50.892;4.702;2022-10-31T06:15:47;17.13;;;7.73;;
30247;SDS011;17063;50.892;4.702;2022-10-31T06:18:16;17.70;;;8.07;;
30247;SDS011;17063;50.892;4.702;2022-10-31T06:20:48;25.40;;;8.53;;
30247;SDS011;17063;50.892;4.702;2022-10-31T06:23:15;21.90;;;8.60;;
30247;SDS011;17063;50.892;4.702;2022-10-31T06:25:48;14.40;;;7.60;;
30247;SDS011;17063;50.892;4.702;2022-10-31T06:28:15;14.40;;;8.33;;
30247;SDS011;17063;50.892;4.702;2022-10-31T06:30:49;18.53;;;9.10;;
30247;SDS011;17063;50.892;4.702;2022-10-31T06:33:17;20.93;;;9.60;;
30247;SDS011;17063;50.892;4.702;2022-10-31T06:35:54;13.20;;;9.67;;
30247;SDS011;17063;50.892;4.702;2022-10-31T06:38:21;19.33;;;8.97;;
30247;SDS011;17063;50.892;4.702;2022-10-31T06:40:49;16.23;;;9.23;;
30247;SDS011;17063;50.892;4.702;2022-10-31T06:43:20;14.53;;;9.40;;
30247;SDS011;17063;50.892;4.702;2022-10-31T06:45:48;14.37;;;8.87;;
30247;SDS011;17063;50.892;4.702;2022-10-31T06:48:40;15.40;;;8.17;;
30247;SDS011;17063;50.892;4.702;2022-10-31T06:51:17;14.47;;;8.53;;
30247;SDS011;17063;50.892;4.702;2022-10-31T06:53:44;20.83;;;8.73;;
30247;SDS011;17063;50.892;4.702;2022-10-31T06:56:15;13.53;;;9.00;;
30247;SDS011;17063;50.892;4.702;2022-10-31T06:58:47;22.60;;;9.30;;
30247;SDS011;17063;50.892;4.702;2022-10-31T07:01:17;14.53;;;8.80;;
30247;SDS011;17063;50.892;4.702;2022-10-31T07:03:49;18.80;;;8.43;;
30247;SDS011;17063;50.892;4.702;2022-10-31T07:06:16;18.37;;;8.80;;
30247;SDS011;17063;50.892;4.702;2022-10-31T07:08:46;19.10;;;9.20;;
30247;SDS011;17063;50.892;4.702;2022-10-31T07:11:14;12.13;;;8.73;;
30247;SDS011;17063;50.892;4.702;2022-10-31T07:13:42;16.60;;;9.10;;
30247;SDS011;17063;50.892;4.702;2022-10-31T07:16:11;18.70;;;8.40;;
30247;SDS011;17063;50.892;4.702;2022-10-31T07:18:40;16.67;;;9.17;;
30247;SDS011;17063;50.892;4.702;2022-10-31T07:21:08;21.20;;;8.90;;
30247;SDS011;17063;50.892;4.702;2022-10-31T07:23:37;14.43;;;8.30;;
30247;SDS011;17063;50.892;4.702;2022-10-31T07:26:29;16.63;;;9.03;;
30247;SDS011;17063;50.892;4.702;2022-10-31T07:28:57;14.57;;;9.00;;
30247;SDS011;17063;50.892;4.702;2022-10-31T07:31:26;17.27;;;9.67;;
30247;SDS011;17063;50.892;4.702;2022-10-31T07:37:18;16.10;;;9.73;;
30247;SDS011;17063;50.892;4.702;2022-10-31T07:39:47;13.77;;;9.13;;
30247;SDS011;17063;50.892;4.702;2022-10-31T07:42:14;16.73;;;8.53;;
30247;SDS011;17063;50.892;4.702;2022-10-31T07:44:44;17.00;;;8.90;;
30247;SDS011;17063;50.892;4.702;2022-10-31T07:47:47;20.20;;;9.00;;
30247;SDS011;17063;50.892;4.702;2022-10-31T07:50:36;17.00;;;8.90;;
30247;SDS011;17063;50.892;4.702;2022-10-31T07:53:33;13.93;;;8.87;;
30247;SDS011;17063;50.892;4.702;2022-10-31T07:56:10;14.60;;;8.30;;
30247;SDS011;17063;50.892;4.702;2022-10-31T07:58:39;16.07;;;9.00;;
30247;SDS011;17063;50.892;4.702;2022-10-31T08:01:06;16.13;;;8.43;;
30247;SDS011;17063;50.892;4.702;2022-10-31T08:03:44;19.73;;;9.07;;
30247;SDS011;17063;50.892;4.702;2022-10-31T08:06:29;16.13;;;9.20;;
30247;SDS011;17063;50.892;4.702;2022-10-31T08:09:30;15.27;;;8.70;;
30247;SDS011;17063;50.892;4.702;2022-10-31T08:12:00;17.93;;;9.00;;
30247;SDS011;17063;50.892;4.702;2022-10-31T08:14:29;17.73;;;8.53;;
30247;SDS011;17063;50.892;4.702;2022-10-31T08:16:57;17.27;;;9.20;;
30247;SDS011;17063;50.892;4.702;2022-10-31T08:19:31;14.90;;;8.47;;
30247;SDS011;17063;50.892;4.702;2022-10-31T08:21:58;18.77;;;8.77;;
30247;SDS011;17063;50.892;4.702;2022-10-31T08:24:26;19.87;;;9.33;;
30247;SDS011;17063;50.892;4.702;2022-10-31T08:26:53;18.63;;;8.47;;
30247;SDS011;17063;50.892;4.702;2022-10-31T08:29:21;22.37;;;8.60;;
30247;SDS011;17063;50.892;4.702;2022-10-31T08:31:47;14.67;;;7.87;;
30247;SDS011;17063;50.892;4.702;2022-10-31T08:34:33;14.87;;;9.03;;
30247;SDS011;17063;50.892;4.702;2022-10-31T08:37:18;19.30;;;8.70;;
30247;SDS011;17063;50.892;4.702;2022-10-31T08:39:51;17.23;;;8.30;;
30247;SDS011;17063;50.892;4.702;2022-10-31T08:42:19;18.03;;;8.03;;
30247;SDS011;17063;50.892;4.702;2022-10-31T08:44:46;13.37;;;8.00;;
30247;SDS011;17063;50.892;4.702;2022-10-31T08:47:13;17.83;;;8.00;;
30247;SDS011;17063;50.892;4.702;2022-10-31T08:49:39;22.63;;;8.67;;
30247;SDS011;17063;50.892;4.702;2022-10-31T08:52:06;18.37;;;7.63;;
30247;SDS011;17063;50.892;4.702;2022-10-31T08:54:43;14.43;;;8.70;;
30247;SDS011;17063;50.892;4.702;2022-10-31T08:57:36;15.87;;;8.60;;
30247;SDS011;17063;50.892;4.702;2022-10-31T09:00:06;15.83;;;7.90;;
30247;SDS011;17063;50.892;4.702;2022-10-31T09:02:56;14.13;;;8.43;;
30247;SDS011;17063;50.892;4.702;2022-10-31T09:05:32;13.50;;;7.83;;
30247;SDS011;17063;50.892;4.702;2022-10-31T09:08:00;14.03;;;8.40;;
30247;SDS011;17063;50.892;4.702;2022-10-31T09:10:43;18.03;;;8.27;;
30247;SDS011;17063;50.892;4.702;2022-10-31T09:13:18;15.93;;;9.03;;
30247;SDS011;17063;50.892;4.702;2022-10-31T09:16:05;14.83;;;8.30;;
30247;SDS011;17063;50.892;4.702;2022-10-31T09:18:37;13.30;;;8.30;;
30247;SDS011;17063;50.892;4.702;2022-10-31T09:21:04;20.13;;;8.47;;
30247;SDS011;17063;50.892;4.702;2022-10-31T09:23:31;19.23;;;8.77;;
30247;SDS011;17063;50.892;4.702;2022-10-31T09:26:01;19.17;;;8.63;;
30247;SDS011;17063;50.892;4.702;2022-10-31T09:28:52;15.83;;;8.57;;
30247;SDS011;17063;50.892;4.702;2022-10-31T09:31:19;22.90;;;9.40;;
30247;SDS011;17063;50.892;4.702;2022-10-31T09:33:46;18.13;;;8.70;;
30247;SDS011;17063;50.892;4.702;2022-10-31T09:36:31;29.73;;;9.83;;
30247;SDS011;17063;50.892;4.702;2022-10-31T09:38:58;15.93;;;8.33;;
30247;SDS011;17063;50.892;4.702;2022-10-31T09:44:03;20.43;;;8.77;;
30247;SDS011;17063;50.892;4.702;2022-10-31T09:52:08;16.03;;;10.03;;
30247;SDS011;17063;50.892;4.702;2022-10-31T09:54:43;16.93;;;9.20;;
30247;SDS011;17063;50.892;4.702;2022-10-31T09:57:23;18.33;;;9.07;;
30247;SDS011;17063;50.892;4.702;2022-10-31T09:59:58;20.77;;;10.07;;
30247;SDS011;17063;50.892;4.702;2022-10-31T10:02:28;18.77;;;9.57;;
30247;SDS011;17063;50.892;4.702;2022-10-31T10:05:01;21.37;;;9.70;;
30247;SDS011;17063;50.892;4.702;2022-10-31T10:07:38;22.73;;;10.63;;
30247;SDS011;17063;50.892;4.702;2022-10-31T10:14:13;16.00;;;9.23;;
30247;SDS011;17063;50.892;4.702;2022-10-31T10:16:59;18.70;;;10.10;;
30247;SDS011;17063;50.892;4.702;2022-10-31T10:27:26;17.73;;;9.60;;
30247;SDS011;17063;50.892;4.702;2022-10-31T10:32:43;19.03;;;9.43;;
30247;SDS011;17063;50.892;4.702;2022-10-31T10:35:28;19.73;;;9.57;;
30247;SDS011;17063;50.892;4.702;2022-10-31T10:38:01;18.50;;;9.60;;
30247;SDS011;17063;50.892;4.702;2022-10-31T10:40:35;19.80;;;9.37;;
30247;SDS011;17063;50.892;4.702;2022-10-31T10:45:51;20.00;;;9.63;;
30247;SDS011;17063;50.892;4.702;2022-10-31T10:48:53;13.57;;;8.87;;
30247;SDS011;17063;50.892;4.702;2022-10-31T10:51:27;18.53;;;9.73;;
30247;SDS011;17063;50.892;4.702;2022-10-31T10:54:22;21.83;;;9.23;;
30247;SDS011;17063;50.892;4.702;2022-10-31T10:57:10;19.60;;;8.53;;
30247;SDS011;17063;50.892;4.702;2022-10-31T11:00:26;18.60;;;8.93;;
30247;SDS011;17063;50.892;4.702;2022-10-31T11:02:54;22.17;;;9.50;;
30247;SDS011;17063;50.892;4.702;2022-10-31T11:07:52;17.43;;;8.23;;
30247;SDS011;17063;50.892;4.702;2022-10-31T11:10:19;21.50;;;7.97;;
30247;SDS011;17063;50.892;4.702;2022-10-31T11:15:53;14.90;;;7.37;;
30247;SDS011;17063;50.892;4.702;2022-10-31T11:18:21;22.53;;;6.97;;
30247;SDS011;17063;50.892;4.702;2022-10-31T11:20:58;18.33;;;7.30;;
30247;SDS011;17063;50.892;4.702;2022-10-31T11:23:27;17.90;;;7.33;;
30247;SDS011;17063;50.892;4.702;2022-10-31T11:26:03;13.27;;;6.60;;
30247;SDS011;17063;50.892;4.702;2022-10-31T11:28:32;13.87;;;6.13;;
30247;SDS011;17063;50.892;4.702;2022-10-31T11:31:10;13.97;;;6.83;;
30247;SDS011;17063;50.892;4.702;2022-10-31T11:36:27;17.27;;;6.53;;
30247;SDS011;17063;50.892;4.702;2022-10-31T11:38:56;12.97;;;6.60;;
30247;SDS011;17063;50.892;4.702;2022-10-31T11:41:29;16.63;;;6.67;;
30247;SDS011;17063;50.892;4.702;2022-10-31T11:44:02;16.30;;;6.23;;
30247;SDS011;17063;50.892;4.702;2022-10-31T11:46:49;11.07;;;5.93;;
30247;SDS011;17063;50.892;4.702;2022-10-31T11:49:28;19.70;;;7.10;;
30247;SDS011;17063;50.892;4.702;2022-10-31T11:51:58;18.60;;;6.77;;
30247;SDS011;17063;50.892;4.702;2022-10-31T11:54:28;12.80;;;5.97;;
30247;SDS011;17063;50.892;4.702;2022-10-31T11:56:59;15.60;;;7.00;;
30247;SDS011;17063;50.892;4.702;2022-10-31T11:59:35;16.47;;;7.40;;
30247;SDS011;17063;50.892;4.702;2022-10-31T12:02:17;14.77;;;6.60;;
30247;SDS011;17063;50.892;4.702;2022-10-31T12:04:47;14.30;;;6.23;;
30247;SDS011;17063;50.892;4.702;2022-10-31T12:07:21;15.20;;;6.67;;
30247;SDS011;17063;50.892;4.702;2022-10-31T12:09:53;14.63;;;7.10;;
30247;SDS011;17063;50.892;4.702;2022-10-31T12:12:31;17.27;;;6.97;;
30247;SDS011;17063;50.892;4.702;2022-10-31T12:17:54;15.93;;;5.90;;
30247;SDS011;17063;50.892;4.702;2022-10-31T12:20:26;18.27;;;7.20;;
30247;SDS011;17063;50.892;4.702;2022-10-31T12:25:43;15.77;;;6.87;;
30247;SDS011;17063;50.892;4.702;2022-10-31T12:31:23;17.00;;;7.03;;
30247;SDS011;17063;50.892;4.702;2022-10-31T12:36:40;16.43;;;6.40;;
30247;SDS011;17063;50.892;4.702;2022-10-31T12:50:27;13.43;;;6.20;;
30247;SDS011;17063;50.892;4.702;2022-10-31T12:53:21;18.00;;;6.47;;
30247;SDS011;17063;50.892;4.702;2022-10-31T12:56:03;14.30;;;6.10;;
30247;SDS011;17063;50.892;4.702;2022-10-31T13:01:21;15.47;;;5.20;;
30247;SDS011;17063;50.892;4.702;2022-10-31T13:06:44;13.80;;;5.97;;
30247;SDS011;17063;50.892;4.702;2022-10-31T13:09:18;14.37;;;6.00;;
30247;SDS011;17063;50.892;4.702;2022-10-31T13:11:56;13.30;;;5.53;;
30247;SDS011;17063;50.892;4.702;2022-10-31T13:17:43;10.80;;;4.60;;
30247;SDS011;17063;50.892;4.702;2022-10-31T13:20:17;13.27;;;4.97;;
30247;SDS011;17063;50.892;4.702;2022-10-31T13:22:50;13.93;;;5.00;;
30247;SDS011;17063;50.892;4.702;2022-10-31T13:25:22;14.80;;;4.90;;
30247;SDS011;17063;50.892;4.702;2022-10-31T13:27:53;11.83;;;4.87;;
30247;SDS011;17063;50.892;4.702;2022-10-31T13:30:25;13.90;;;4.90;;
30247;SDS011;17063;50.892;4.702;2022-10-31T13:38:38;19.30;;;5.30;;
30247;SDS011;17063;50.892;4.702;2022-10-31T13:41:22;11.37;;;5.17;;
30247;SDS011;17063;50.892;4.702;2022-10-31T13:46:52;16.73;;;4.90;;
30247;SDS011;17063;50.892;4.702;2022-10-31T13:54:48;10.50;;;4.73;;
30247;SDS011;17063;50.892;4.702;2022-10-31T13:57:26;18.93;;;5.80;;
30247;SDS011;17063;50.892;4.702;2022-10-31T14:00:01;14.83;;;5.80;;
30247;SDS011;17063;50.892;4.702;2022-10-31T14:02:49;15.23;;;6.43;;
30247;SDS011;17063;50.892;4.702;2022-10-31T14:07:52;12.37;;;6.30;;
30247;SDS011;17063;50.892;4.702;2022-10-31T14:15:58;16.63;;;7.00;;
30247;SDS011;17063;50.892;4.702;2022-10-31T14:23:50;15.77;;;6.50;;
30247;SDS011;17063;50.892;4.702;2022-10-31T14:28:55;20.30;;;7.17;;
30247;SDS011;17063;50.892;4.702;2022-10-31T14:31:55;16.17;;;6.00;;
30247;SDS011;17063;50.892;4.702;2022-10-31T14:34:26;18.67;;;7.37;;
30247;SDS011;17063;50.892;4.702;2022-10-31T14:51:10;21.23;;;9.10;;
30247;SDS011;17063;50.892;4.702;2022-10-31T14:53:49;23.87;;;8.93;;
30247;SDS011;17063;50.892;4.702;2022-10-31T14:56:20;16.60;;;8.00;;
30247;SDS011;17063;50.892;4.702;2022-10-31T14:58:51;20.30;;;8.87;;
30247;SDS011;17063;50.892;4.702;2022-10-31T15:01:24;24.00;;;9.23;;
30247;SDS011;17063;50.892;4.702;2022-10-31T15:03:57;17.83;;;8.83;;
30247;SDS011;17063;50.892;4.702;2022-10-31T15:10:03;20.87;;;8.93;;
30247;SDS011;17063;50.892;4.702;2022-10-31T15:12:45;20.53;;;9.67;;
30247;SDS011;17063;50.892;4.702;2022-10-31T15:15:21;14.63;;;8.73;;
30247;SDS011;17063;50.892;4.702;2022-10-31T15:17:52;21.37;;;8.90;;
30247;SDS011;17063;50.892;4.702;2022-10-31T15:20:22;22.57;;;8.77;;
30247;SDS011;17063;50.892;4.702;2022-10-31T15:25:47;16.03;;;8.63;;
30247;SDS011;17063;50.892;4.702;2022-10-31T15:28:15;18.87;;;9.33;;
30247;SDS011;17063;50.892;4.702;2022-10-31T15:30:53;20.10;;;8.83;;
30247;SDS011;17063;50.892;4.702;2022-10-31T15:33:26;17.93;;;8.10;;
30247;SDS011;17063;50.892;4.702;2022-10-31T15:36:03;20.07;;;8.87;;
30247;SDS011;17063;50.892;4.702;2022-10-31T15:38:29;18.63;;;9.07;;
30247;SDS011;17063;50.892;4.702;2022-10-31T15:40:59;22.93;;;10.10;;
30247;SDS011;17063;50.892;4.702;2022-10-31T15:43:33;26.67;;;9.80;;
30247;SDS011;17063;50.892;4.702;2022-10-31T15:46:02;15.80;;;9.23;;
30247;SDS011;17063;50.892;4.702;2022-10-31T15:48:47;20.00;;;9.40;;
30247;SDS011;17063;50.892;4.702;2022-10-31T15:51:17;20.00;;;9.17;;
30247;SDS011;17063;50.892;4.702;2022-10-31T15:53:52;25.13;;;9.70;;
30247;SDS011;17063;50.892;4.702;2022-10-31T15:56:25;17.20;;;8.13;;
30247;SDS011;17063;50.892;4.702;2022-10-31T15:58:55;20.93;;;9.17;;
30247;SDS011;17063;50.892;4.702;2022-10-31T16:04:20;22.30;;;9.87;;
30247;SDS011;17063;50.892;4.702;2022-10-31T16:06:58;21.80;;;9.40;;
30247;SDS011;17063;50.892;4.702;2022-10-31T16:09:27;22.73;;;9.70;;
30247;SDS011;17063;50.892;4.702;2022-10-31T16:11:55;25.37;;;9.50;;
30247;SDS011;17063;50.892;4.702;2022-10-31T16:14:24;26.43;;;10.37;;
30247;SDS011;17063;50.892;4.702;2022-10-31T16:16:53;19.30;;;9.27;;
30247;SDS011;17063;50.892;4.702;2022-10-31T16:21:54;20.83;;;9.43;;
30247;SDS011;17063;50.892;4.702;2022-10-31T16:24:24;19.27;;;9.27;;
30247;SDS011;17063;50.892;4.702;2022-10-31T16:26:54;21.57;;;7.50;;
30247;SDS011;17063;50.892;4.702;2022-10-31T16:31:52;18.07;;;7.10;;
30247;SDS011;17063;50.892;4.702;2022-10-31T16:34:20;14.97;;;6.10;;
30247;SDS011;17063;50.892;4.702;2022-10-31T16:36:52;19.57;;;6.87;;
30247;SDS011;17063;50.892;4.702;2022-10-31T16:39:19;18.90;;;8.67;;
30247;SDS011;17063;50.892;4.702;2022-10-31T16:41:47;20.63;;;6.83;;
30247;SDS011;17063;50.892;4.702;2022-10-31T16:44:19;15.37;;;6.27;;
30247;SDS011;17063;50.892;4.702;2022-10-31T16:46:59;12.03;;;6.30;;
30247;SDS011;17063;50.892;4.702;2022-10-31T16:49:34;17.07;;;6.50;;
30247;SDS011;17063;50.892;4.702;2022-10-31T16:52:01;17.23;;;5.67;;
30247;SDS011;17063;50.892;4.702;2022-10-31T16:54:28;14.30;;;5.60;;
30247;SDS011;17063;50.892;4.702;2022-10-31T16:56:55;22.07;;;5.70;;
30247;SDS011;17063;50.892;4.702;2022-10-31T16:59:24;16.50;;;5.60;;
30247;SDS011;17063;50.892;4.702;2022-10-31T17:02:14;16.50;;;6.97;;
30247;SDS011;17063;50.892;4.702;2022-10-31T17:04:42;13.00;;;6.03;;
30247;SDS011;17063;50.892;4.702;2022-10-31T17:07:09;12.07;;;6.20;;
30247;SDS011;17063;50.892;4.702;2022-10-31T17:09:36;14.77;;;5.77;;
30247;SDS011;17063;50.892;4.702;2022-10-31T17:12:04;11.80;;;5.27;;
30247;SDS011;17063;50.892;4.702;2022-10-31T17:14:32;14.67;;;5.17;;
30247;SDS011;17063;50.892;4.702;2022-10-31T17:16:59;10.17;;;4.43;;
30247;SDS011;17063;50.892;4.702;2022-10-31T17:19:31;10.80;;;5.03;;
30247;SDS011;17063;50.892;4.702;2022-10-31T17:22:00;11.83;;;4.63;;
30247;SDS011;17063;50.892;4.702;2022-10-31T17:24:27;9.93;;;4.30;;
30247;SDS011;17063;50.892;4.702;2022-10-31T17:26:54;10.93;;;4.13;;
30247;SDS011;17063;50.892;4.702;2022-10-31T17:29:21;10.40;;;4.33;;
30247;SDS011;17063;50.892;4.702;2022-10-31T17:31:47;11.30;;;4.67;;
30247;SDS011;17063;50.892;4.702;2022-10-31T17:34:14;14.00;;;4.57;;
30247;SDS011;17063;50.892;4.702;2022-10-31T17:36:41;14.13;;;4.13;;
30247;SDS011;17063;50.892;4.702;2022-10-31T17:39:08;9.07;;;3.90;;
30247;SDS011;17063;50.892;4.702;2022-10-31T17:41:35;11.90;;;4.63;;
30247;SDS011;17063;50.892;4.702;2022-10-31T17:44:01;13.13;;;4.13;;
30247;SDS011;17063;50.892;4.702;2022-10-31T17:46:28;10.00;;;4.17;;
30247;SDS011;17063;50.892;4.702;2022-10-31T17:48:55;14.17;;;4.70;;
30247;SDS011;17063;50.892;4.702;2022-10-31T17:51:23;11.47;;;5.43;;
30247;SDS011;17063;50.892;4.702;2022-10-31T17:53:50;10.40;;;5.10;;
30247;SDS011;17063;50.892;4.702;2022-10-31T17:56:16;15.90;;;5.53;;
30247;SDS011;17063;50.892;4.702;2022-10-31T17:58:43;15.93;;;4.90;;
30247;SDS011;17063;50.892;4.702;2022-10-31T18:01:11;10.93;;;4.73;;
30247;SDS011;17063;50.892;4.702;2022-10-31T18:03:40;12.50;;;5.17;;
30247;SDS011;17063;50.892;4.702;2022-10-31T18:06:07;11.07;;;5.20;;
30247;SDS011;17063;50.892;4.702;2022-10-31T18:08:35;10.13;;;4.90;;